createdAt,value
2023-03-14T00:01:46.191Z,15.70
2023-03-14T00:04:13.802Z,11.52
2023-03-14T00:06:41.415Z,12.68
2023-03-14T00:09:10.637Z,10.38
2023-03-14T00:19:27.505Z,15.15
2023-03-14T00:21:53.785Z,17.08
2023-03-14T00:24:20.047Z,13.88
2023-03-14T00:26:46.233Z,12.97
2023-03-14T00:29:12.426Z,11.95
2023-03-14T00:31:39.843Z,12.70
2023-03-14T00:34:06.156Z,9.32
2023-03-14T00:40:10.864Z,12.77
2023-03-14T00:42:38.502Z,15.32
2023-03-14T00:45:06.637Z,13.30
2023-03-14T00:47:34.232Z,11.52
2023-03-14T00:50:02.224Z,16.90
2023-03-14T00:52:29.943Z,12.95
2023-03-14T00:54:57.582Z,11.25
2023-03-14T00:57:26.653Z,16.30
2023-03-14T00:59:54.599Z,16.00
2023-03-14T01:02:22.263Z,11.53
2023-03-14T01:04:50.642Z,10.60
2023-03-14T01:07:18.294Z,11.63
2023-03-14T01:09:45.926Z,12.90
2023-03-14T01:12:13.736Z,9.93
2023-03-14T01:14:45.167Z,12.93
2023-03-14T01:17:14.237Z,13.95
2023-03-14T01:19:41.983Z,11.43
2023-03-14T01:22:09.597Z,12.57
2023-03-14T01:24:38.839Z,11.60
2023-03-14T01:27:06.453Z,8.93
2023-03-14T01:29:34.120Z,15.45
2023-03-14T01:32:01.704Z,16.65
2023-03-14T01:34:30.887Z,12.93
2023-03-14T01:36:58.664Z,10.30
2023-03-14T01:39:26.482Z,10.30
2023-03-14T01:41:54.131Z,13.55
2023-03-14T01:44:21.805Z,8.90
2023-03-14T01:46:49.652Z,10.32
2023-03-14T01:49:20.273Z,12.68
2023-03-14T01:51:51.969Z,14.47
2023-03-14T01:54:22.003Z,16.00
2023-03-14T01:56:52.670Z,12.50
2023-03-14T01:59:20.472Z,8.93
2023-03-14T02:01:49.420Z,10.80
2023-03-14T02:04:18.273Z,11.30
2023-03-14T02:06:51.748Z,14.50
2023-03-14T02:09:19.399Z,11.43
2023-03-14T02:11:47.239Z,9.68
2023-03-14T02:14:19.633Z,13.95
2023-03-14T02:16:47.573Z,11.87
2023-03-14T02:19:16.335Z,8.60
2023-03-14T02:21:49.364Z,11.65
2023-03-14T02:24:22.553Z,13.73
2023-03-14T02:27:16.981Z,12.10
2023-03-14T02:29:51.690Z,16.93
2023-03-14T02:32:19.803Z,15.02
2023-03-14T02:34:50.351Z,10.13
2023-03-14T02:37:19.422Z,10.80
2023-03-14T02:39:48.906Z,11.15
2023-03-14T02:42:16.735Z,8.13
2023-03-14T02:44:56.129Z,10.68
2023-03-14T02:47:28.435Z,11.95
2023-03-14T02:49:58.841Z,9.07
2023-03-14T02:52:26.507Z,13.98
2023-03-14T02:54:54.162Z,8.87
2023-03-14T02:57:21.818Z,8.77
2023-03-14T02:59:49.469Z,11.18
2023-03-14T03:02:18.497Z,8.27
2023-03-14T03:04:46.144Z,10.02
2023-03-14T03:07:13.825Z,7.57
2023-03-14T03:09:41.383Z,10.90
2023-03-14T03:12:09.086Z,8.88
2023-03-14T03:14:38.397Z,12.02
2023-03-14T03:17:05.968Z,14.68
2023-03-14T03:19:35.472Z,15.73
2023-03-14T03:22:03.283Z,7.20
2023-03-14T03:24:30.902Z,11.15
2023-03-14T03:26:58.685Z,12.20
2023-03-14T03:29:26.419Z,9.73
2023-03-14T03:31:54.118Z,12.63
2023-03-14T03:34:21.759Z,8.45
2023-03-14T03:36:50.885Z,9.88
2023-03-14T03:39:18.646Z,8.73
2023-03-14T03:41:46.334Z,9.95
2023-03-14T03:44:14.783Z,12.27
2023-03-14T03:46:42.423Z,10.20
2023-03-14T03:49:10.035Z,10.90
2023-03-14T03:51:37.645Z,11.10
2023-03-14T03:54:06.771Z,9.88
2023-03-14T03:56:34.421Z,9.87
2023-03-14T03:59:02.074Z,11.27
2023-03-14T04:01:29.729Z,8.45
2023-03-14T04:03:57.636Z,12.48
2023-03-14T04:06:25.574Z,9.95
2023-03-14T04:08:53.305Z,13.67
2023-03-14T04:11:22.345Z,7.78
2023-03-14T04:13:50.000Z,12.38
2023-03-14T04:16:19.473Z,13.85
2023-03-14T04:18:47.154Z,10.73
2023-03-14T04:21:14.916Z,9.80
2023-03-14T04:23:42.534Z,9.48
2023-03-14T04:26:10.145Z,8.63
2023-03-14T04:28:40.094Z,8.50
2023-03-14T04:31:11.203Z,9.30
2023-03-14T04:33:38.901Z,8.23
2023-03-14T04:36:07.190Z,9.35
2023-03-14T04:38:35.044Z,5.85
2023-03-14T04:41:02.998Z,7.63
2023-03-14T04:43:30.645Z,10.23
2023-03-14T04:45:59.796Z,6.77
2023-03-14T04:48:27.937Z,10.25
2023-03-14T04:50:55.817Z,9.32
2023-03-14T04:53:23.507Z,7.05
2023-03-14T04:55:51.703Z,6.88
2023-03-14T04:58:19.626Z,6.70
2023-03-14T05:00:47.713Z,8.40
2023-03-14T05:03:18.562Z,6.07
2023-03-14T05:05:46.643Z,6.55
2023-03-14T05:08:14.324Z,8.95
2023-03-14T05:10:42.084Z,8.20
2023-03-14T05:13:09.703Z,7.95
2023-03-14T05:15:37.387Z,7.15
2023-03-14T05:18:05.310Z,7.05
2023-03-14T05:20:34.416Z,8.60
2023-03-14T05:23:02.021Z,6.57
2023-03-14T05:25:31.548Z,12.43
2023-03-14T05:28:00.224Z,7.50
2023-03-14T05:30:29.002Z,8.13
2023-03-14T05:32:56.737Z,7.78
2023-03-14T05:35:24.275Z,7.50
2023-03-14T05:37:53.266Z,9.30
2023-03-14T05:40:20.901Z,10.23
2023-03-14T05:42:48.491Z,9.50
2023-03-14T05:45:16.149Z,5.72
2023-03-14T05:47:43.786Z,6.47
2023-03-14T05:50:12.141Z,8.40
2023-03-14T05:52:39.830Z,6.90
2023-03-14T05:55:09.358Z,7.72
2023-03-14T05:57:37.049Z,9.88
2023-03-14T06:00:05.050Z,10.73
2023-03-14T06:02:32.719Z,10.18
2023-03-14T06:05:00.364Z,9.75
2023-03-14T06:07:27.942Z,7.95
2023-03-14T06:09:55.534Z,8.73
2023-03-14T06:12:24.604Z,11.07
2023-03-14T06:14:52.283Z,8.05
2023-03-14T06:17:19.880Z,6.97
2023-03-14T06:19:47.527Z,10.55
2023-03-14T06:22:15.478Z,10.02
2023-03-14T06:24:43.095Z,11.07
2023-03-14T06:27:10.656Z,10.02
2023-03-14T06:29:39.726Z,9.77
2023-03-14T06:32:07.396Z,7.10
2023-03-14T06:34:35.056Z,5.45
2023-03-14T06:37:02.763Z,7.73
2023-03-14T06:39:30.984Z,8.07
2023-03-14T06:41:58.625Z,6.38
2023-03-14T06:44:26.257Z,9.15
2023-03-14T06:46:55.429Z,7.53
2023-03-14T06:49:23.038Z,5.33
2023-03-14T06:51:50.691Z,6.30
2023-03-14T06:54:18.326Z,5.25
2023-03-14T06:56:45.964Z,4.43
2023-03-14T06:59:13.658Z,4.05
2023-03-14T07:01:41.404Z,5.10
2023-03-14T07:04:10.585Z,4.10
2023-03-14T07:06:38.675Z,6.05
2023-03-14T07:09:06.421Z,2.97
2023-03-14T07:11:34.095Z,2.80
2023-03-14T07:14:01.665Z,2.13
2023-03-14T07:16:32.395Z,3.58
2023-03-14T07:18:59.985Z,3.70
2023-03-14T07:21:29.236Z,2.58
2023-03-14T07:23:57.079Z,3.05
2023-03-14T07:26:24.773Z,2.17
2023-03-14T07:28:52.480Z,3.53
2023-03-14T07:31:20.279Z,2.75
2023-03-14T07:33:47.898Z,2.63
2023-03-14T07:36:15.606Z,2.35
2023-03-14T07:38:44.784Z,2.63
2023-03-14T07:41:12.666Z,3.33
2023-03-14T07:43:40.363Z,2.50
2023-03-14T07:46:08.239Z,2.80
2023-03-14T07:48:36.085Z,2.67
2023-03-14T07:51:03.698Z,2.97
2023-03-14T07:53:31.317Z,2.63
2023-03-14T07:56:00.380Z,2.60
2023-03-14T07:58:28.009Z,2.53
2023-03-14T08:00:55.676Z,2.10
2023-03-14T08:03:23.344Z,5.53
2023-03-14T08:05:51.397Z,3.45
2023-03-14T08:08:19.393Z,3.08
2023-03-14T08:10:47.374Z,4.85
2023-03-14T08:13:16.568Z,2.60
2023-03-14T08:15:44.233Z,3.47
2023-03-14T08:18:11.916Z,2.45
2023-03-14T08:20:39.643Z,2.72
2023-03-14T08:23:07.286Z,2.50
2023-03-14T08:25:35.184Z,2.22
2023-03-14T08:28:02.981Z,1.77
2023-03-14T08:30:32.174Z,2.58
2023-03-14T08:33:00.257Z,1.70
2023-03-14T08:35:28.117Z,2.53
2023-03-14T08:37:55.795Z,1.88
2023-03-14T08:40:23.479Z,2.20
2023-03-14T08:42:51.067Z,2.58
2023-03-14T08:45:19.067Z,2.58
2023-03-14T08:47:48.217Z,2.75
2023-03-14T08:50:16.770Z,2.88
2023-03-14T08:52:44.508Z,3.60
2023-03-14T08:55:12.389Z,2.22
2023-03-14T08:57:40.065Z,3.75
2023-03-14T09:00:11.731Z,2.72
2023-03-14T09:02:39.489Z,2.65
2023-03-14T09:05:09.215Z,2.70
2023-03-14T09:07:36.821Z,2.67
2023-03-14T09:10:04.721Z,2.22
2023-03-14T09:12:32.541Z,3.00
2023-03-14T09:15:00.194Z,4.07
2023-03-14T09:17:27.775Z,3.17
2023-03-14T09:19:55.358Z,2.95
2023-03-14T09:22:24.821Z,2.63
2023-03-14T09:24:52.429Z,3.47
2023-03-14T09:27:20.023Z,3.67
2023-03-14T09:29:47.731Z,2.73
2023-03-14T09:32:15.470Z,3.08
2023-03-14T09:34:43.038Z,3.60
2023-03-14T09:37:10.681Z,4.57
2023-03-14T09:39:40.018Z,7.90
2023-03-14T09:42:10.111Z,4.77
2023-03-14T09:44:39.703Z,5.22
2023-03-14T09:47:08.432Z,3.38
2023-03-14T09:49:37.844Z,2.65
2023-03-14T09:52:09.042Z,5.43
2023-03-14T09:54:38.108Z,2.53
2023-03-14T09:57:08.595Z,4.45
2023-03-14T09:59:37.344Z,2.70
2023-03-14T10:02:13.708Z,3.00
2023-03-14T10:04:45.099Z,5.22
2023-03-14T10:07:15.860Z,3.07
2023-03-14T10:09:45.442Z,6.43
2023-03-14T10:12:14.491Z,5.85
2023-03-14T10:14:48.185Z,4.53
2023-03-14T10:17:16.829Z,3.25
2023-03-14T10:19:54.880Z,5.23
2023-03-14T10:22:23.569Z,4.68
2023-03-14T10:24:53.974Z,6.53
2023-03-14T10:27:24.120Z,3.78
2023-03-14T10:29:59.417Z,3.95
2023-03-14T10:32:34.227Z,5.60
2023-03-14T10:35:11.041Z,4.50
2023-03-14T10:37:49.831Z,6.28
2023-03-14T10:40:17.738Z,5.32
2023-03-14T10:42:48.772Z,5.50
2023-03-14T10:45:27.384Z,6.80
2023-03-14T10:47:54.947Z,6.32
2023-03-14T10:50:26.651Z,7.43
2023-03-14T10:53:02.515Z,10.18
2023-03-14T10:55:30.688Z,8.45
2023-03-14T10:57:59.947Z,5.03
2023-03-14T11:00:27.617Z,6.70
2023-03-14T11:03:06.651Z,6.10
2023-03-14T11:05:36.523Z,4.75
2023-03-14T11:08:09.665Z,6.28
2023-03-14T11:10:38.619Z,6.33
2023-03-14T11:13:14.868Z,4.20
2023-03-14T11:15:43.938Z,7.55
2023-03-14T11:18:24.484Z,5.22
2023-03-14T11:20:54.875Z,6.18
2023-03-14T11:23:23.650Z,5.27
2023-03-14T11:25:56.114Z,4.22
2023-03-14T11:28:28.164Z,5.28
2023-03-14T11:30:56.707Z,5.00
2023-03-14T11:33:26.729Z,5.00
2023-03-14T11:35:57.583Z,6.07
2023-03-14T11:38:32.166Z,3.58
2023-03-14T11:41:00.547Z,5.55
2023-03-14T11:43:31.754Z,6.43
2023-03-14T11:46:03.860Z,5.55
2023-03-14T11:48:35.533Z,9.13
2023-03-14T11:51:06.253Z,5.25
2023-03-14T11:53:41.700Z,5.50
2023-03-14T11:56:13.300Z,6.47
2023-03-14T11:58:46.025Z,4.88
2023-03-14T12:01:15.686Z,6.47
2023-03-14T12:03:45.140Z,4.82
2023-03-14T12:06:17.920Z,8.02
2023-03-14T12:08:49.758Z,6.90
2023-03-14T12:11:20.256Z,5.82
2023-03-14T12:13:51.247Z,6.20
2023-03-14T12:16:28.543Z,5.07
2023-03-14T12:18:56.343Z,6.45
2023-03-14T12:21:24.929Z,4.13
2023-03-14T12:23:54.414Z,8.07
2023-03-14T12:26:23.339Z,4.53
2023-03-14T12:28:53.330Z,5.63
2023-03-14T12:31:40.318Z,3.92
2023-03-14T12:34:22.967Z,6.35
2023-03-14T12:36:56.135Z,5.97
2023-03-14T12:39:31.763Z,7.20
2023-03-14T12:42:05.326Z,4.90
2023-03-14T12:44:48.273Z,5.35
2023-03-14T12:47:43.412Z,5.30
2023-03-14T12:50:15.660Z,7.07
2023-03-14T12:52:49.811Z,6.20
2023-03-14T12:55:20.869Z,6.10
2023-03-14T12:57:50.956Z,5.40
2023-03-14T13:00:22.298Z,5.57
2023-03-14T13:02:50.700Z,4.57
2023-03-14T13:05:20.448Z,6.93
2023-03-14T13:08:05.350Z,6.80
2023-03-14T13:10:42.237Z,4.97
2023-03-14T13:13:16.456Z,6.13
2023-03-14T13:15:46.159Z,8.80
2023-03-14T13:18:15.232Z,6.20
2023-03-14T13:20:46.360Z,6.30
2023-03-14T13:23:23.946Z,4.45
2023-03-14T13:25:51.602Z,5.95
2023-03-14T13:28:19.269Z,6.65
2023-03-14T13:30:49.103Z,4.60
2023-03-14T13:33:17.673Z,6.60
2023-03-14T13:35:48.915Z,4.55
2023-03-14T13:38:20.481Z,5.07
2023-03-14T13:40:51.732Z,4.63
2023-03-14T13:43:20.678Z,6.50
2023-03-14T13:45:52.535Z,6.20
2023-03-14T13:48:20.835Z,6.20
2023-03-14T13:50:53.220Z,4.93
2023-03-14T13:53:20.880Z,5.22
2023-03-14T13:55:48.678Z,4.63
2023-03-14T13:58:22.893Z,4.78
2023-03-14T14:01:00.468Z,6.95
2023-03-14T14:03:28.652Z,5.35
2023-03-14T14:05:57.482Z,6.57
2023-03-14T14:08:25.445Z,6.23
2023-03-14T14:10:56.287Z,5.20
2023-03-14T14:13:24.659Z,7.72
2023-03-14T14:15:53.904Z,5.13
2023-03-14T14:18:25.972Z,5.95
2023-03-14T14:20:53.598Z,8.73
2023-03-14T14:23:26.148Z,5.35
2023-03-14T14:25:53.905Z,3.83
2023-03-14T14:28:25.943Z,5.38
2023-03-14T14:31:02.119Z,4.53
2023-03-14T14:33:31.122Z,6.87
2023-03-14T14:35:59.666Z,8.05
2023-03-14T14:38:27.392Z,5.97
2023-03-14T14:40:56.804Z,6.85
2023-03-14T14:43:25.684Z,4.82
2023-03-14T14:45:54.388Z,6.20
2023-03-14T14:48:23.456Z,7.97
2023-03-14T14:50:57.541Z,5.70
2023-03-14T14:53:26.715Z,6.10
2023-03-14T14:55:55.448Z,5.38
2023-03-14T14:58:25.691Z,4.80
2023-03-14T15:00:55.398Z,3.80
2023-03-14T15:03:23.136Z,6.68
2023-03-14T15:05:50.781Z,7.05
2023-03-14T15:08:19.693Z,5.47
2023-03-14T15:10:47.304Z,4.07
2023-03-14T15:13:15.092Z,4.43
2023-03-14T15:15:44.314Z,4.80
2023-03-14T15:18:16.193Z,8.88
2023-03-14T15:20:44.152Z,3.13
2023-03-14T15:23:12.432Z,4.23
2023-03-14T15:25:54.544Z,4.35
2023-03-14T15:28:23.936Z,2.80
2023-03-14T15:30:52.524Z,4.68
2023-03-14T15:33:20.423Z,3.92
2023-03-14T15:35:48.540Z,5.67
2023-03-14T15:38:17.257Z,3.50
2023-03-14T15:40:46.153Z,3.83
2023-03-14T15:43:13.772Z,5.10
2023-03-14T15:45:42.448Z,4.00
2023-03-14T15:48:14.565Z,3.00
2023-03-14T15:50:42.117Z,3.67
2023-03-14T15:53:09.689Z,7.55
2023-03-14T15:55:37.285Z,3.67
2023-03-14T15:58:06.397Z,5.43
2023-03-14T16:00:35.683Z,5.90
2023-03-14T16:03:03.314Z,4.53
2023-03-14T16:05:30.899Z,6.43
2023-03-14T16:07:58.448Z,4.72
2023-03-14T16:10:26.104Z,5.20
2023-03-14T16:12:53.720Z,5.73
2023-03-14T16:15:22.607Z,2.85
2023-03-14T16:17:53.973Z,2.88
2023-03-14T16:20:21.620Z,4.65
2023-03-14T16:22:49.423Z,5.43
2023-03-14T16:25:18.886Z,3.20
2023-03-14T16:27:46.634Z,4.55
2023-03-14T16:30:15.024Z,3.33
2023-03-14T16:32:44.057Z,7.75
2023-03-14T16:35:12.021Z,3.60
2023-03-14T16:37:39.611Z,6.30
2023-03-14T16:40:12.736Z,4.65
2023-03-14T16:42:54.969Z,8.18
2023-03-14T16:45:29.334Z,4.88
2023-03-14T16:47:58.458Z,4.65
2023-03-14T16:50:26.042Z,3.83
2023-03-14T16:52:55.352Z,3.85
2023-03-14T16:55:23.334Z,3.33
2023-03-14T16:57:50.979Z,1.65
2023-03-14T17:00:19.071Z,1.98
2023-03-14T17:02:46.661Z,2.87
2023-03-14T17:05:15.617Z,2.58
2023-03-14T17:07:43.158Z,3.35
2023-03-14T17:10:11.365Z,2.25
2023-03-14T17:12:39.098Z,4.05
2023-03-14T17:15:07.181Z,1.37
2023-03-14T17:17:34.893Z,2.97
2023-03-14T17:20:02.486Z,2.35
2023-03-14T17:22:32.907Z,3.75
2023-03-14T17:25:01.438Z,2.50
2023-03-14T17:27:29.208Z,1.37
2023-03-14T17:29:56.905Z,6.22
2023-03-14T17:32:25.532Z,1.60
2023-03-14T17:34:54.635Z,3.97
2023-03-14T17:37:22.299Z,3.47
2023-03-14T17:39:51.245Z,4.33
2023-03-14T17:42:18.819Z,7.93
2023-03-14T17:44:46.726Z,4.78
2023-03-14T17:47:14.507Z,4.35
2023-03-14T17:49:42.054Z,3.75
2023-03-14T17:52:12.857Z,3.17
2023-03-14T17:54:40.679Z,7.40
2023-03-14T17:57:09.723Z,12.00
2023-03-14T17:59:37.335Z,3.38
2023-03-14T18:02:05.569Z,5.55
2023-03-14T18:04:33.364Z,4.23
2023-03-14T18:07:01.006Z,2.30
2023-03-14T18:09:28.570Z,5.07
2023-03-14T18:12:07.125Z,5.20
2023-03-14T18:14:36.834Z,3.20
2023-03-14T18:17:05.463Z,3.23
2023-03-14T18:19:33.194Z,4.00
2023-03-14T18:22:00.774Z,4.00
2023-03-14T18:24:29.088Z,1.70
2023-03-14T18:26:56.815Z,3.08
2023-03-14T18:29:24.382Z,4.13
2023-03-14T18:31:53.394Z,2.60
2023-03-14T18:34:21.028Z,10.93
2023-03-14T18:36:48.597Z,4.50
2023-03-14T18:39:16.168Z,3.63
2023-03-14T18:41:43.732Z,3.10
2023-03-14T18:44:11.704Z,3.72
2023-03-14T18:46:39.400Z,7.28
2023-03-14T18:49:08.786Z,4.43
2023-03-14T18:51:36.399Z,5.55
2023-03-14T18:54:09.909Z,6.80
2023-03-14T18:56:38.371Z,4.43
2023-03-14T18:59:05.918Z,3.97
2023-03-14T19:01:34.514Z,3.10
2023-03-14T19:04:02.679Z,7.60
2023-03-14T19:06:33.147Z,4.57
2023-03-14T19:09:00.873Z,3.58
2023-03-14T19:11:28.553Z,5.43
2023-03-14T19:13:57.023Z,4.03
2023-03-14T19:16:25.430Z,9.35
2023-03-14T19:18:55.293Z,5.20
2023-03-14T19:21:30.090Z,3.33
2023-03-14T19:23:59.676Z,3.28
2023-03-14T19:26:29.807Z,11.85
2023-03-14T19:28:57.580Z,4.97
2023-03-14T19:31:25.561Z,10.87
2023-03-14T19:33:53.276Z,3.25
2023-03-14T19:36:22.710Z,5.80
2023-03-14T19:38:54.238Z,11.45
2023-03-14T19:41:24.332Z,6.15
2023-03-14T19:43:52.242Z,11.13
2023-03-14T19:46:20.052Z,9.23
2023-03-14T19:48:48.623Z,7.95
2023-03-14T19:51:16.795Z,2.85
2023-03-14T19:53:45.126Z,10.32
2023-03-14T19:56:13.022Z,6.03
2023-03-14T19:58:42.286Z,4.38
2023-03-14T20:01:10.055Z,6.00
2023-03-14T20:03:37.845Z,6.50
2023-03-14T20:06:05.806Z,13.52
2023-03-14T20:08:33.393Z,4.83
2023-03-14T20:11:01.184Z,5.35
2023-03-14T20:13:28.933Z,6.90
2023-03-14T20:15:57.874Z,4.57
2023-03-14T20:18:25.442Z,4.10
2023-03-14T20:20:53.280Z,4.03
2023-03-14T20:23:21.050Z,1.52
2023-03-14T20:25:53.946Z,7.00
2023-03-14T20:28:21.790Z,3.95
2023-03-14T20:30:49.467Z,4.85
2023-03-14T20:33:19.912Z,6.83
2023-03-14T20:35:48.044Z,3.83
2023-03-14T20:38:15.561Z,8.55
2023-03-14T20:40:46.415Z,2.20
2023-03-14T20:43:14.041Z,1.92
2023-03-14T20:45:41.799Z,5.10
2023-03-14T20:48:09.348Z,3.53
2023-03-14T20:50:38.489Z,7.55
2023-03-14T20:53:06.133Z,4.72
2023-03-14T20:55:33.745Z,7.95
2023-03-14T20:58:01.577Z,6.10
2023-03-14T21:00:29.178Z,4.45
2023-03-14T21:02:56.770Z,4.00
2023-03-14T21:05:25.028Z,7.63
2023-03-14T21:07:54.033Z,8.45
2023-03-14T21:10:21.967Z,4.97
2023-03-14T21:12:52.831Z,5.82
2023-03-14T21:15:20.435Z,4.72
2023-03-14T21:17:47.990Z,4.95
2023-03-14T21:20:16.638Z,3.22
2023-03-14T21:22:44.213Z,5.27
2023-03-14T21:25:13.176Z,2.80
2023-03-14T21:27:40.828Z,4.70
2023-03-14T21:30:09.051Z,3.95
2023-03-14T21:32:36.654Z,3.47
2023-03-14T21:35:04.430Z,3.70
2023-03-14T21:37:32.037Z,3.58
2023-03-14T21:39:59.573Z,3.00
2023-03-14T21:42:28.723Z,2.88
2023-03-14T21:44:56.245Z,5.57
2023-03-14T21:47:24.417Z,3.10
2023-03-14T21:49:52.012Z,4.18
2023-03-14T21:52:19.556Z,3.30
2023-03-14T21:54:47.111Z,4.43
2023-03-14T21:57:15.498Z,4.75
2023-03-14T21:59:44.960Z,3.80
2023-03-14T22:02:13.775Z,4.95
2023-03-14T22:04:41.981Z,5.55
2023-03-14T22:07:10.365Z,8.00
2023-03-14T22:09:39.938Z,2.60
2023-03-14T22:12:07.680Z,5.90
2023-03-14T22:14:35.517Z,4.22
2023-03-14T22:17:04.620Z,2.45
2023-03-14T22:19:48.280Z,3.10
2023-03-14T22:22:15.971Z,6.05
2023-03-14T22:24:43.593Z,4.73
2023-03-14T22:27:13.178Z,4.70
2023-03-14T22:29:40.918Z,8.35
2023-03-14T22:32:10.086Z,3.72
2023-03-14T22:34:37.668Z,5.28
2023-03-14T22:37:06.472Z,5.13
2023-03-14T22:39:34.238Z,2.83
2023-03-14T22:42:01.935Z,2.67
2023-03-14T22:44:32.640Z,4.00
2023-03-14T22:47:01.065Z,5.32
2023-03-14T22:49:31.216Z,6.03
2023-03-14T22:51:58.991Z,3.65
2023-03-14T22:54:26.546Z,3.70
2023-03-14T22:56:54.081Z,3.13
2023-03-14T22:59:21.652Z,4.53
2023-03-14T23:01:49.192Z,4.23
2023-03-14T23:04:16.750Z,4.28
2023-03-14T23:06:45.699Z,2.83
2023-03-14T23:09:13.246Z,3.55
2023-03-14T23:11:41.743Z,3.20
2023-03-14T23:14:09.524Z,5.17
2023-03-14T23:16:40.625Z,2.60
2023-03-14T23:19:09.751Z,4.32
2023-03-14T23:21:37.653Z,3.63
2023-03-14T23:24:06.920Z,3.92
2023-03-14T23:26:36.175Z,6.80
2023-03-14T23:29:05.563Z,3.20
2023-03-14T23:31:33.545Z,3.33
2023-03-14T23:34:01.111Z,9.15
2023-03-14T23:36:29.592Z,4.25
2023-03-14T23:38:57.204Z,4.07
2023-03-14T23:41:26.109Z,7.28
2023-03-14T23:43:53.691Z,6.10
2023-03-14T23:46:21.724Z,5.78
2023-03-14T23:48:49.337Z,4.38
2023-03-14T23:51:17.333Z,3.27
2023-03-14T23:53:45.422Z,4.70
2023-03-14T23:56:13.684Z,5.75
2023-03-14T23:58:42.966Z,7.35
